Time;durP1;ratioP1;P1;durP2;ratioP2;P2;SDS_P1;SDS_P2;PMS_P1;PMS_P2;Temp;Humidity;BMP_temperature;BMP_pressure;BME280_temperature;BME280_humidity;BME280_pressure;Samples;Min_cycle;Max_cycle;Signal;HPM_P1;HPM_P2
2022/06/02 00:02:49;;;;;;;8.50;6.43;;;;;;;10.30;100.00;101997.97;5093374;28;20035;-69
2022/06/02 00:05:30;;;;;;;7.93;6.20;;;;;;;10.27;100.00;101992.59;5090487;28;21806;-68
2022/06/02 00:08:17;;;;;;;6.50;5.68;;;;;;;10.26;100.00;101994.31;5086282;28;20471;-68
2022/06/02 00:11:19;;;;;;;9.27;6.45;;;;;;;10.19;100.00;102002.84;5100418;28;20032;-69
2022/06/02 00:14:05;;;;;;;6.57;5.97;;;;;;;10.17;100.00;102008.88;5098094;28;20047;-68
2022/06/02 00:16:38;;;;;;;7.80;5.75;;;;;;;10.17;100.00;101999.22;5109931;28;20070;-69
2022/06/02 00:19:13;;;;;;;11.63;6.13;;;;;;;10.13;100.00;102006.13;5107300;28;20360;-69
2022/06/02 00:21:55;;;;;;;11.60;6.88;;;;;;;10.15;100.00;102000.94;5112312;28;20028;-69
2022/06/02 00:24:39;;;;;;;6.50;5.90;;;;;;;10.16;100.00;101999.19;5104568;28;20172;-69
2022/06/02 00:27:19;;;;;;;8.88;5.95;;;;;;;10.14;100.00;102009.66;5107338;28;20061;-69
2022/06/02 00:30:05;;;;;;;8.02;6.15;;;;;;;10.10;100.00;102013.00;5090540;28;20036;-69
2022/06/02 00:32:38;;;;;;;6.43;5.68;;;;;;;10.05;100.00;102012.84;5095315;28;20028;-67
2022/06/02 00:35:07;;;;;;;7.28;5.60;;;;;;;10.03;100.00;102011.88;5099198;28;20084;-68
2022/06/02 00:38:03;;;;;;;8.05;6.05;;;;;;;10.02;100.00;102012.72;5098648;28;20097;-69
2022/06/02 00:40:30;;;;;;;8.80;6.28;;;;;;;9.99;100.00;102004.72;5086586;28;20115;-69
2022/06/02 00:43:02;;;;;;;7.15;6.00;;;;;;;9.99;100.00;102011.72;5100454;28;20024;-69
2022/06/02 00:45:28;;;;;;;9.77;6.22;;;;;;;9.98;100.00;102010.81;5094856;28;20032;-69
2022/06/02 00:48:31;;;;;;;9.50;6.38;;;;;;;9.99;100.00;102007.34;5103385;28;20073;-68
2022/06/02 00:51:11;;;;;;;9.43;6.60;;;;;;;10.01;100.00;102012.66;5095513;28;20123;-68
2022/06/02 00:53:39;;;;;;;7.63;6.15;;;;;;;10.06;100.00;102011.09;5094672;28;20027;-69
2022/06/02 00:59:26;;;;;;;8.63;6.50;;;;;;;10.18;100.00;102008.03;5097970;28;20042;-68
2022/06/02 01:01:51;;;;;;;8.65;6.28;;;;;;;10.30;100.00;102005.84;5094631;28;20107;-69
2022/06/02 01:04:18;;;;;;;10.65;7.35;;;;;;;10.37;100.00;102007.88;5099986;28;20462;-69
2022/06/02 01:06:52;;;;;;;8.52;6.43;;;;;;;10.45;100.00;102006.44;5100134;28;20468;-69
2022/06/02 01:09:57;;;;;;;7.47;5.97;;;;;;;10.44;100.00;102011.63;5081510;28;20022;-68
2022/06/02 01:12:46;;;;;;;7.82;6.25;;;;;;;10.44;100.00;102020.44;5097843;28;20375;-69
2022/06/02 01:15:17;;;;;;;7.65;6.15;;;;;;;10.43;100.00;102013.38;5102908;28;20467;-69
2022/06/02 01:18:02;;;;;;;7.22;6.53;;;;;;;10.37;100.00;102018.41;5098203;28;20042;-69
2022/06/02 01:20:52;;;;;;;10.73;6.20;;;;;;;10.30;100.00;102016.38;5096097;28;20019;-70
2022/06/02 01:23:36;;;;;;;10.38;6.00;;;;;;;10.26;100.00;102019.72;5114909;28;20027;-69
2022/06/02 01:26:10;;;;;;;7.32;5.68;;;;;;;10.17;100.00;102020.28;5102225;28;20031;-69
2022/06/02 01:28:48;;;;;;;7.70;5.82;;;;;;;10.17;100.00;102017.66;5089481;28;20106;-69
2022/06/02 01:31:26;;;;;;;7.35;6.07;;;;;;;10.19;100.00;102020.34;5101986;28;20047;-68
2022/06/02 01:34:12;;;;;;;6.35;5.75;;;;;;;10.09;100.00;102029.63;5092161;28;20368;-69
2022/06/02 01:37:11;;;;;;;6.80;6.10;;;;;;;10.04;100.00;102023.31;5082465;28;20024;-69
2022/06/02 01:39:44;;;;;;;8.60;6.30;;;;;;;9.98;100.00;102023.94;5092667;28;20115;-70
2022/06/02 01:42:32;;;;;;;6.97;6.28;;;;;;;9.93;100.00;102023.78;5095335;28;20097;-69
2022/06/02 01:45:18;;;;;;;15.68;6.78;;;;;;;9.92;100.00;102024.63;5108289;28;20035;-68
2022/06/02 01:47:50;;;;;;;7.20;6.50;;;;;;;9.92;100.00;102029.88;5100836;28;20081;-68
2022/06/02 01:50:41;;;;;;;7.85;7.05;;;;;;;9.86;100.00;102034.00;5099249;28;20055;-68
2022/06/02 01:53:34;;;;;;;11.02;7.65;;;;;;;9.92;100.00;102034.25;5114155;28;20032;-68
2022/06/02 01:56:10;;;;;;;9.77;7.18;;;;;;;9.93;100.00;102033.41;5088638;28;20032;-68
2022/06/02 01:58:44;;;;;;;9.10;6.80;;;;;;;9.90;100.00;102025.38;5091777;28;20024;-70
2022/06/02 02:01:36;;;;;;;8.75;7.53;;;;;;;9.84;100.00;102026.06;5091608;28;20032;-68
2022/06/02 02:04:32;;;;;;;11.55;8.15;;;;;;;9.82;100.00;102026.84;5095323;28;20046;-68
2022/06/02 02:07:35;;;;;;;7.68;6.70;;;;;;;9.81;100.00;102014.53;5102972;28;20028;-69
2022/06/02 02:10:21;;;;;;;7.75;6.93;;;;;;;9.74;100.00;102030.06;5093446;28;20386;-68
2022/06/02 02:13:43;;;;;;;9.63;8.15;;;;;;;9.75;100.00;102029.25;5096724;28;20036;-69
2022/06/02 02:16:20;;;;;;;10.93;6.95;;;;;;;9.80;100.00;102021.53;5049160;28;20108;-68
2022/06/02 02:19:09;;;;;;;9.18;6.70;;;;;;;9.78;100.00;102021.47;5049928;28;20033;-68
2022/06/02 02:21:48;;;;;;;10.57;7.78;;;;;;;9.72;100.00;102031.72;5092412;28;20071;-69
2022/06/02 02:24:31;;;;;;;8.63;7.60;;;;;;;9.70;100.00;102028.16;5099020;28;20176;-68
2022/06/02 02:27:27;;;;;;;8.25;6.93;;;;;;;9.64;100.00;102022.66;5098800;28;20080;-68
2022/06/02 02:30:12;;;;;;;11.73;8.13;;;;;;;9.62;100.00;102026.97;5086263;28;20035;-68
2022/06/02 02:32:40;;;;;;;10.73;7.85;;;;;;;9.65;100.00;102028.81;5085921;28;20115;-69
2022/06/02 02:35:06;;;;;;;10.25;8.43;;;;;;;9.65;100.00;102034.06;5097343;28;20039;-69
2022/06/02 02:37:40;;;;;;;9.95;7.88;;;;;;;9.66;100.00;102034.13;5088568;28;20459;-69
2022/06/02 02:40:44;;;;;;;8.85;7.38;;;;;;;9.50;100.00;102029.09;5091861;28;20016;-68
2022/06/02 02:43:31;;;;;;;11.82;8.25;;;;;;;9.44;100.00;102035.91;5092443;28;20376;-67
2022/06/02 02:46:09;;;;;;;10.43;8.45;;;;;;;9.42;100.00;102032.28;5091664;28;20032;-68
2022/06/02 02:48:51;;;;;;;8.38;7.50;;;;;;;9.39;100.00;102032.19;5092071;28;20031;-68
2022/06/02 02:51:31;;;;;;;11.68;7.57;;;;;;;9.37;100.00;102031.25;5092467;28;20504;-68
2022/06/02 02:54:13;;;;;;;10.02;8.77;;;;;;;9.33;100.00;102039.81;5087458;28;20016;-69
2022/06/02 02:56:51;;;;;;;10.00;7.63;;;;;;;9.29;100.00;102035.25;5087775;28;20392;-68
2022/06/02 02:59:30;;;;;;;8.73;7.80;;;;;;;9.25;100.00;102038.59;5088944;28;20032;-69
2022/06/02 03:02:17;;;;;;;8.75;7.85;;;;;;;9.19;100.00;102033.97;5089574;28;20035;-69
2022/06/02 03:05:19;;;;;;;10.40;7.68;;;;;;;9.19;100.00;102035.72;5093936;28;20031;-69
2022/06/02 03:07:45;;;;;;;9.35;7.03;;;;;;;9.17;100.00;102034.75;5100775;28;20585;-69
2022/06/02 03:10:26;;;;;;;9.00;7.60;;;;;;;9.10;100.00;102037.16;5092762;28;20103;-69
2022/06/02 03:13:08;;;;;;;9.18;6.70;;;;;;;9.07;100.00;102037.00;5091584;28;20379;-69
2022/06/02 03:15:43;;;;;;;10.45;8.55;;;;;;;9.06;100.00;102036.94;5095884;28;20085;-69
2022/06/02 03:18:14;;;;;;;11.65;8.65;;;;;;;8.99;100.00;102038.41;5081315;28;20526;-69
2022/06/02 03:21:03;;;;;;;9.23;8.10;;;;;;;9.02;100.00;102040.25;5092485;28;20103;-69
2022/06/02 03:24:02;;;;;;;8.40;7.50;;;;;;;9.00;100.00;102040.19;5093309;28;20032;-69
2022/06/02 03:26:46;;;;;;;8.10;7.30;;;;;;;8.99;100.00;102045.38;5086442;28;20051;-68
2022/06/02 03:29:29;;;;;;;;;;;;;;;8.97;100.00;102047.97;5098623;28;20024;-69
2022/06/02 03:32:28;;;;;;;9.23;7.60;;;;;;;8.96;100.00;102043.53;5111190;28;19908;-68
2022/06/02 03:35:02;;;;;;;8.50;7.47;;;;;;;8.96;100.00;102038.28;5110285;28;20027;-69
2022/06/02 03:37:52;;;;;;;10.40;8.30;;;;;;;8.95;100.00;102039.09;5090673;28;20085;-69
2022/06/02 03:40:33;;;;;;;8.43;7.43;;;;;;;8.92;100.00;102044.22;5103919;28;20466;-69
2022/06/02 03:43:11;;;;;;;9.02;7.20;;;;;;;8.88;100.00;102048.44;5104856;28;20028;-69
2022/06/02 03:46:00;;;;;;;11.95;7.85;;;;;;;8.91;100.00;102052.94;5107996;28;20498;-68
2022/06/02 03:48:49;;;;;;;9.77;8.77;;;;;;;8.89;100.00;102059.84;5102473;28;20057;-70
2022/06/02 03:51:17;;;;;;;12.50;8.05;;;;;;;8.88;100.00;102052.81;5101370;28;20035;-69
2022/06/02 03:53:54;;;;;;;9.13;7.50;;;;;;;8.89;100.00;102060.75;5107502;28;20091;-68
2022/06/02 03:56:36;;;;;;;10.10;8.63;;;;;;;8.93;100.00;102062.66;5106810;28;20044;-69
2022/06/02 03:59:13;;;;;;;13.43;8.82;;;;;;;8.92;100.00;102059.97;5095831;28;20073;-69
2022/06/02 04:02:05;;;;;;;17.50;11.85;;;;;;;8.94;100.00;102058.34;5095528;28;20028;-69
2022/06/02 04:04:47;;;;;;;16.48;10.90;;;;;;;8.98;100.00;102068.13;5091521;28;20029;-68
2022/06/02 04:07:37;;;;;;;14.77;10.02;;;;;;;8.99;100.00;102066.41;5087498;28;20078;-68
2022/06/02 04:10:41;;;;;;;13.00;9.90;;;;;;;9.02;100.00;102064.81;5114313;28;20016;-68
2022/06/02 04:13:51;;;;;;;16.10;9.70;;;;;;;9.08;100.00;102067.66;5091769;28;20055;-68
2022/06/02 04:16:28;;;;;;;14.60;10.45;;;;;;;9.14;100.00;102074.91;5102421;28;20034;-68
2022/06/02 04:22:09;;;;;;;13.75;10.35;;;;;;;9.21;100.00;102074.34;5101294;28;20035;-69
2022/06/02 04:25:07;;;;;;;14.07;10.02;;;;;;;9.28;100.00;102080.78;5098027;28;20034;-68
2022/06/02 04:27:36;;;;;;;12.73;9.60;;;;;;;9.39;100.00;102081.22;5098224;28;20036;-68
2022/06/02 04:30:20;;;;;;;13.60;9.27;;;;;;;9.40;100.00;102077.72;5095376;28;20028;-69
2022/06/02 04:32:45;;;;;;;14.48;9.93;;;;;;;9.44;100.00;102088.44;5095067;28;20114;-69
2022/06/02 04:35:38;;;;;;;12.80;9.55;;;;;;;9.45;100.00;102085.00;5101780;28;20441;-69
2022/06/02 04:38:41;;;;;;;11.55;10.15;;;;;;;9.53;100.00;102094.91;5094863;28;20099;-69
2022/06/02 04:41:51;;;;;;;13.45;9.90;;;;;;;9.60;100.00;102099.56;5113467;28;20069;-69
2022/06/02 04:44:43;;;;;;;13.82;10.40;;;;;;;9.66;100.00;102102.47;5098200;28;20028;-69
2022/06/02 04:47:33;;;;;;;13.27;10.93;;;;;;;9.74;100.00;102103.66;5082938;28;20016;-70
2022/06/02 04:50:07;;;;;;;14.45;11.40;;;;;;;9.76;100.00;102111.59;5093164;28;20044;-69
2022/06/02 04:52:51;;;;;;;13.40;10.35;;;;;;;9.81;100.00;102111.78;5110105;28;20067;-69
2022/06/02 04:55:22;;;;;;;;;;;;;;;9.87;100.00;102112.03;5092130;28;20069;-67
2022/06/02 04:57:47;;;;;;;10.63;9.52;;;;;;;9.95;100.00;102113.25;5093545;28;19916;-69
2022/06/02 05:00:37;;;;;;;14.23;10.75;;;;;;;10.04;100.00;102116.25;5094010;28;20444;-69
2022/06/02 05:03:24;;;;;;;13.18;10.50;;;;;;;10.16;100.00;102117.53;5092367;28;20047;-69
2022/06/02 05:05:58;;;;;;;14.07;11.10;;;;;;;10.24;100.00;102118.72;5102425;28;20019;-68
2022/06/02 05:08:42;;;;;;;12.23;10.77;;;;;;;10.33;100.00;102116.47;5094110;28;20038;-68
2022/06/02 05:11:40;;;;;;;14.43;12.25;;;;;;;10.42;100.00;102118.59;5100325;28;20023;-68
2022/06/02 05:15:00;;;;;;;15.18;11.52;;;;;;;10.54;100.00;102119.06;5104620;28;20028;-69
2022/06/02 05:17:47;;;;;;;13.55;11.40;;;;;;;10.62;100.00;102117.59;5028920;28;20504;-67
2022/06/02 05:20:39;;;;;;;12.85;10.52;;;;;;;10.71;100.00;102119.66;5035315;28;20474;-68
2022/06/02 05:23:05;;;;;;;16.83;11.18;;;;;;;10.79;100.00;102127.84;5107179;28;20146;-69
2022/06/02 05:26:07;;;;;;;17.02;10.95;;;;;;;10.87;100.00;102125.50;5101359;28;20106;-69
2022/06/02 05:29:11;;;;;;;15.88;11.05;;;;;;;10.94;100.00;102127.50;5094932;28;20043;-68
2022/06/02 05:32:06;;;;;;;11.07;9.87;;;;;;;11.03;100.00;102126.91;5096535;28;20032;-69
2022/06/02 05:34:53;;;;;;;14.45;10.70;;;;;;;11.09;100.00;102130.66;5092515;28;20034;-69
2022/06/02 05:37:46;;;;;;;11.40;10.20;;;;;;;11.16;100.00;102126.50;5088842;28;20510;-69
2022/06/02 05:40:14;;;;;;;14.25;9.63;;;;;;;11.25;100.00;102133.84;5095746;28;20064;-70
2022/06/02 05:42:44;;;;;;;10.98;9.88;;;;;;;11.33;100.00;102131.47;5103002;28;20032;-69
2022/06/02 05:45:38;;;;;;;10.15;9.18;;;;;;;11.40;100.00;102134.38;5097001;28;20031;-68
2022/06/02 05:48:26;;;;;;;11.18;9.23;;;;;;;11.47;100.00;102139.00;5085498;28;20032;-68
2022/06/02 05:51:08;;;;;;;11.95;10.10;;;;;;;11.58;100.00;102141.09;5092320;28;20028;-69
2022/06/02 05:54:09;;;;;;;10.68;9.50;;;;;;;11.68;100.00;102144.94;5097255;28;20042;-69
2022/06/02 05:56:39;;;;;;;10.35;9.20;;;;;;;11.78;100.00;102137.38;5083333;28;20118;-69
2022/06/02 05:59:10;;;;;;;11.52;10.30;;;;;;;11.85;100.00;102141.09;5096269;28;20361;-69
2022/06/02 06:01:47;;;;;;;13.55;9.75;;;;;;;11.85;100.00;102137.59;5091865;28;20063;-69
2022/06/02 06:04:31;;;;;;;9.05;6.95;;;;;;;11.88;100.00;102138.59;5086640;28;20437;-70
2022/06/02 06:07:13;;;;;;;11.60;8.27;;;;;;;11.90;100.00;102134.25;5092157;28;20118;-70
2022/06/02 06:10:03;;;;;;;11.32;8.27;;;;;;;11.98;100.00;102145.97;5088334;28;20039;-70
2022/06/02 06:12:53;;;;;;;9.38;7.05;;;;;;;12.07;100.00;102140.09;5085194;28;20436;-68
2022/06/02 06:15:42;;;;;;;7.43;6.47;;;;;;;12.13;100.00;102135.00;5091224;28;20488;-70
2022/06/02 06:18:10;;;;;;;9.02;7.65;;;;;;;12.24;100.00;102137.06;5096356;28;20023;-70
2022/06/02 06:20:51;;;;;;;10.10;9.00;;;;;;;12.28;100.00;102123.13;5093518;28;20101;-70
2022/06/02 06:23:34;;;;;;;11.60;8.20;;;;;;;12.37;100.00;102143.59;5093643;28;20031;-70
2022/06/02 06:26:22;;;;;;;10.90;8.98;;;;;;;12.40;100.00;102141.97;5085067;28;20043;-70
2022/06/02 06:29:17;;;;;;;9.68;7.05;;;;;;;12.47;100.00;102146.56;5084570;28;20024;-70
2022/06/02 06:31:42;;;;;;;;;;;;;;;12.58;100.00;102151.28;5067057;28;20118;-69
2022/06/02 06:34:37;;;;;;;7.43;6.20;;;;;;;12.69;100.00;102151.59;5090657;28;20202;-68
2022/06/02 06:37:27;;;;;;;7.53;5.05;;;;;;;12.77;100.00;102158.88;5085265;28;20300;-71
2022/06/02 06:40:05;;;;;;;6.82;6.13;;;;;;;12.87;100.00;102153.88;5087775;28;20047;-69
2022/06/02 06:42:36;;;;;;;9.38;6.00;;;;;;;12.96;100.00;102154.13;5092404;28;20388;-70
2022/06/02 06:45:10;;;;;;;7.78;5.45;;;;;;;13.02;100.00;102156.91;5098473;28;20115;-71
2022/06/02 06:47:42;;;;;;;8.80;7.90;;;;;;;13.03;100.00;102157.84;5090980;28;20126;-71
2022/06/02 06:50:28;;;;;;;8.50;7.47;;;;;;;13.08;100.00;102162.38;5092137;28;20123;-68
2022/06/02 06:53:03;;;;;;;8.88;7.13;;;;;;;13.09;100.00;102169.47;5090013;28;20068;-69
2022/06/02 06:55:53;;;;;;;8.50;7.55;;;;;;;13.09;100.00;102168.56;5092641;28;20028;-69
2022/06/02 06:58:40;;;;;;;12.10;7.80;;;;;;;13.13;100.00;102163.41;5092896;28;20081;-70
2022/06/02 07:01:25;;;;;;;11.68;7.32;;;;;;;13.26;100.00;102167.25;5098138;28;20039;-69
2022/06/02 07:04:21;;;;;;;8.80;7.90;;;;;;;13.11;100.00;102173.03;5097146;28;20471;-69
2022/06/02 07:07:26;;;;;;;12.00;8.98;;;;;;;12.97;100.00;102180.59;5096616;28;20502;-71
2022/06/02 07:10:13;;;;;;;12.77;10.23;;;;;;;13.04;100.00;102178.13;5091213;28;20027;-69
2022/06/02 07:12:55;;;;;;;10.55;9.38;;;;;;;13.05;100.00;102183.44;5096134;28;20031;-68
2022/06/02 07:15:20;;;;;;;12.10;9.70;;;;;;;13.03;100.00;102185.13;5101542;28;20048;-68
2022/06/02 07:17:54;;;;;;;14.60;10.30;;;;;;;12.94;100.00;102191.06;5091912;28;20067;-69
2022/06/02 07:20:25;;;;;;;14.00;9.50;;;;;;;12.92;100.00;102191.88;5097739;28;20024;-69
2022/06/02 07:23:05;;;;;;;10.45;9.40;;;;;;;12.94;100.00;102187.50;5099886;28;20054;-71
2022/06/02 07:25:37;;;;;;;8.50;6.68;;;;;;;12.90;100.00;102188.28;5095046;28;20081;-70
2022/06/02 07:28:10;;;;;;;10.98;6.45;;;;;;;12.78;100.00;102189.72;5089985;28;20069;-71
2022/06/02 07:31:05;;;;;;;7.82;6.63;;;;;;;12.78;100.00;102195.00;5091404;28;20049;-70
2022/06/02 07:33:49;;;;;;;8.27;6.88;;;;;;;12.78;100.00;102199.41;5093543;28;20115;-70
2022/06/02 07:36:51;;;;;;;8.43;6.72;;;;;;;12.78;100.00;102204.69;5089147;28;20035;-71
2022/06/02 07:39:22;;;;;;;6.85;6.22;;;;;;;12.78;100.00;102199.41;5101693;28;20016;-70
2022/06/02 07:42:15;;;;;;;7.28;5.95;;;;;;;12.79;100.00;102204.72;5095798;28;20041;-70
2022/06/02 07:45:05;;;;;;;8.37;5.27;;;;;;;12.67;100.00;102214.03;5100169;28;20482;-71
2022/06/02 07:48:01;;;;;;;6.20;5.55;;;;;;;12.64;100.00;102218.38;5095853;28;20024;-71
2022/06/02 07:50:32;;;;;;;5.80;4.53;;;;;;;12.60;100.00;102216.50;5084808;28;20216;-71
2022/06/02 07:53:07;;;;;;;3.97;3.58;;;;;;;12.62;100.00;102214.78;5097854;28;20390;-71
2022/06/02 07:56:00;;;;;;;6.63;5.05;;;;;;;12.67;100.00;102217.59;5099300;28;20035;-71
2022/06/02 07:58:31;;;;;;;5.95;5.22;;;;;;;12.81;100.00;102208.31;5083857;28;20028;-71
2022/06/02 08:01:18;;;;;;;14.57;6.10;;;;;;;12.94;100.00;102212.22;5095515;28;20054;-70
2022/06/02 08:04:12;;;;;;;8.30;5.53;;;;;;;13.10;100.00;102210.91;5097257;28;20032;-71
2022/06/02 08:06:50;;;;;;;7.13;5.57;;;;;;;13.29;100.00;102219.31;5084052;28;20177;-71
2022/06/02 08:09:37;;;;;;;8.77;4.10;;;;;;;13.37;100.00;102225.75;5097257;28;20022;-71
2022/06/02 08:12:05;;;;;;;8.07;4.78;;;;;;;13.51;100.00;102215.56;5116072;28;20024;-70
2022/06/02 08:14:41;;;;;;;8.23;5.20;;;;;;;13.57;100.00;102215.72;5110637;28;20027;-71
2022/06/02 08:17:21;;;;;;;6.75;3.78;;;;;;;13.57;100.00;102221.00;5095386;28;20076;-71
2022/06/02 08:20:12;;;;;;;8.55;3.78;;;;;;;13.52;100.00;102219.09;5095505;28;20035;-70
2022/06/02 08:23:04;;;;;;;4.28;3.45;;;;;;;13.66;100.00;102228.31;5094752;28;20028;-71
2022/06/02 08:25:42;;;;;;;5.30;3.20;;;;;;;13.82;100.00;102226.91;5093719;28;20040;-71
2022/06/02 08:28:19;;;;;;;5.20;3.53;;;;;;;13.90;100.00;102221.84;5095458;28;20083;-71
2022/06/02 08:31:45;;;;;;;5.65;3.13;;;;;;;14.00;100.00;102223.88;5095387;28;20114;-71
2022/06/02 08:34:25;;;;;;;5.47;3.33;;;;;;;14.08;100.00;102224.03;5080597;28;20114;-70
2022/06/02 08:37:28;;;;;;;4.82;4.07;;;;;;;14.29;100.00;102221.91;5090691;28;20032;-70
2022/06/02 08:39:54;;;;;;;6.73;4.00;;;;;;;14.47;100.00;102224.09;5090048;28;20452;-70
2022/06/02 08:42:44;;;;;;;5.22;3.88;;;;;;;14.71;100.00;102228.16;5115637;28;20027;-71
2022/06/02 08:45:58;;;;;;;5.97;4.38;;;;;;;14.84;100.00;102230.22;5100886;28;20111;-70
2022/06/02 08:48:39;;;;;;;5.65;3.83;;;;;;;14.77;96.06;102230.03;5072170;28;20175;-71
2022/06/02 08:51:26;;;;;;;5.32;3.35;;;;;;;14.77;95.71;102228.31;5086050;28;20608;-71
2022/06/02 08:54:27;;;;;;;7.20;4.07;;;;;;;14.88;96.05;102222.31;5094303;28;20496;-70
2022/06/02 08:57:30;;;;;;;6.25;3.72;;;;;;;15.10;95.76;102229.88;5094380;28;20035;-72
2022/06/02 09:00:07;;;;;;;6.63;3.97;;;;;;;15.23;92.14;102232.75;5094616;28;20102;-72
2022/06/02 09:03:18;;;;;;;5.30;4.07;;;;;;;15.36;91.81;102229.47;5092819;28;20039;-71
2022/06/02 09:05:49;;;;;;;3.95;3.55;;;;;;;15.41;90.02;102238.44;5107693;28;20031;-71
2022/06/02 09:08:23;;;;;;;4.32;3.60;;;;;;;15.37;92.39;102233.00;5113872;28;20030;-71
2022/06/02 09:10:59;;;;;;;5.43;3.67;;;;;;;15.55;92.15;102240.44;5107937;28;20062;-71
2022/06/02 09:14:05;;;;;;;4.47;3.50;;;;;;;15.68;86.71;102237.13;5115034;28;20023;-70
2022/06/02 09:16:52;;;;;;;4.82;3.35;;;;;;;15.92;88.41;102236.69;5063267;28;20064;-71
2022/06/02 09:20:03;;;;;;;3.95;3.55;;;;;;;15.96;89.67;102237.66;5102623;28;20115;-71
2022/06/02 09:22:37;;;;;;;5.70;3.13;;;;;;;15.98;89.39;102238.59;5090212;28;20031;-71
2022/06/02 09:25:25;;;;;;;6.05;2.70;;;;;;;16.15;88.16;102247.69;5100685;28;20024;-71
2022/06/02 09:28:10;;;;;;;4.57;3.00;;;;;;;16.17;87.47;102240.66;5092973;28;20122;-71
2022/06/02 09:31:03;;;;;;;5.53;3.85;;;;;;;16.41;85.59;102235.69;5112456;28;20374;-71
2022/06/02 09:33:39;;;;;;;5.75;3.50;;;;;;;16.62;91.68;102235.13;5114529;28;20039;-71
2022/06/02 09:36:38;;;;;;;6.53;3.40;;;;;;;16.98;94.28;102239.13;5105698;28;20020;-70
2022/06/02 09:39:34;;;;;;;4.22;3.22;;;;;;;17.20;93.79;102237.66;5101690;28;20044;-71
2022/06/02 09:42:21;;;;;;;3.80;2.97;;;;;;;17.08;89.51;102241.06;5107365;28;20052;-71
2022/06/02 09:45:28;;;;;;;9.20;3.33;;;;;;;17.29;87.09;102244.81;5109791;28;20031;-71
2022/06/02 09:48:10;;;;;;;4.45;3.10;;;;;;;17.49;90.39;102237.06;5097920;28;20028;-71
2022/06/02 09:50:47;;;;;;;3.95;3.00;;;;;;;17.32;83.10;102235.13;5114198;28;20035;-72
2022/06/02 09:53:29;;;;;;;4.25;3.33;;;;;;;17.32;94.92;102244.84;5114206;28;20027;-71
2022/06/02 09:56:22;;;;;;;4.70;3.55;;;;;;;17.47;90.15;102239.72;5094409;28;20503;-70
2022/06/02 09:59:12;;;;;;;6.82;3.20;;;;;;;17.31;81.63;102237.78;5104634;28;20062;-71
2022/06/02 10:01:55;;;;;;;6.28;3.70;;;;;;;17.38;87.01;102239.63;5106380;28;20085;-71
2022/06/02 10:04:20;;;;;;;5.55;3.45;;;;;;;17.69;85.05;102235.47;5096290;28;20032;-71
2022/06/02 10:07:07;;;;;;;5.72;3.47;;;;;;;17.43;80.64;102226.34;5093559;28;20034;-72
2022/06/02 10:09:47;;;;;;;4.72;3.63;;;;;;;17.56;83.88;102230.03;5097023;28;20031;-72
2022/06/02 10:12:55;;;;;;;4.38;3.30;;;;;;;17.93;83.48;102233.94;5099501;28;20487;-71
2022/06/02 10:15:46;;;;;;;5.65;3.50;;;;;;;18.04;80.39;102231.34;5093131;28;20020;-71
2022/06/02 10:18:31;;;;;;;6.80;3.35;;;;;;;18.17;76.99;102233.25;5079737;28;20093;-72
2022/06/02 10:21:25;;;;;;;4.18;3.03;;;;;;;18.43;76.66;102228.97;5099814;28;20024;-72
2022/06/02 10:24:03;;;;;;;5.35;3.05;;;;;;;18.67;77.16;102230.91;5091908;28;20036;-72
2022/06/02 10:26:50;;;;;;;5.53;3.20;;;;;;;18.76;78.55;102219.38;5093508;28;20031;-72
2022/06/02 10:29:46;;;;;;;4.85;2.80;;;;;;;18.74;70.31;102214.03;5092723;28;20028;-71
2022/06/02 10:32:30;;;;;;;3.30;2.65;;;;;;;18.90;75.04;102219.50;5089387;28;20057;-72
2022/06/02 10:35:21;;;;;;;4.03;2.80;;;;;;;18.71;74.84;102214.91;5104966;28;20027;-72
2022/06/02 10:37:46;;;;;;;4.47;2.53;;;;;;;18.84;76.43;102214.97;5097476;28;20035;-72
2022/06/02 10:40:14;;;;;;;3.83;3.08;;;;;;;18.77;66.42;102198.03;5092294;28;20036;-71
2022/06/02 10:42:53;;;;;;;6.47;4.00;;;;;;;18.75;68.51;102204.28;5093178;28;20054;-72
2022/06/02 10:45:42;;;;;;;4.53;2.97;;;;;;;18.96;61.70;102204.38;5093445;28;20024;-72
2022/06/02 10:48:30;;;;;;;3.75;2.70;;;;;;;19.04;60.37;102197.31;5093288;28;20106;-71
2022/06/02 10:51:21;;;;;;;4.10;2.83;;;;;;;18.89;70.48;102204.34;5095688;28;20032;-71
2022/06/02 10:54:20;;;;;;;2.38;2.17;;;;;;;19.06;60.79;102199.06;5102972;28;20024;-72
2022/06/02 10:57:25;;;;;;;2.03;1.92;;;;;;;19.21;70.95;102200.00;5081782;28;20510;-72
2022/06/02 11:00:15;;;;;;;4.10;2.10;;;;;;;19.40;61.28;102196.47;5089128;28;20032;-71
2022/06/02 11:03:08;;;;;;;3.95;2.40;;;;;;;19.92;71.60;102203.66;5091151;28;20112;-71
2022/06/02 11:05:54;;;;;;;4.28;3.22;;;;;;;20.11;67.99;102199.19;5092058;28;20031;-72
2022/06/02 11:08:56;;;;;;;4.32;2.78;;;;;;;20.15;70.59;102201.84;5095788;28;20028;-70
2022/06/02 11:12:01;;;;;;;4.20;2.50;;;;;;;20.38;73.27;102201.78;5093065;28;20059;-71
2022/06/02 11:14:42;;;;;;;5.70;2.60;;;;;;;20.11;59.57;102184.03;5091584;28;20364;-70
2022/06/02 11:17:35;;;;;;;4.20;3.22;;;;;;;20.03;66.52;102192.06;5097194;28;20550;-70
2022/06/02 11:20:19;;;;;;;3.50;2.58;;;;;;;20.33;65.37;102195.59;5087196;28;20112;-72
2022/06/02 11:22:57;;;;;;;6.32;2.80;;;;;;;19.95;63.83;102199.19;5113405;28;20054;-71
2022/06/02 11:25:32;;;;;;;3.92;3.13;;;;;;;20.17;62.71;102184.03;5108186;28;20039;-72
2022/06/02 11:28:15;;;;;;;3.90;3.13;;;;;;;20.35;65.43;102193.78;5105741;28;20420;-71
2022/06/02 11:31:05;;;;;;;5.10;2.90;;;;;;;20.83;57.13;102185.63;5088763;28;20027;-72
2022/06/02 11:33:55;;;;;;;5.85;3.40;;;;;;;20.34;59.26;102186.66;5100458;28;20060;-71
2022/06/02 11:36:26;;;;;;;2.90;2.40;;;;;;;19.97;62.06;102191.22;5097602;28;20027;-70
2022/06/02 11:39:25;;;;;;;4.22;2.20;;;;;;;19.69;68.39;102191.16;5091791;28;20035;-71
2022/06/02 11:41:51;;;;;;;3.80;2.67;;;;;;;19.57;60.46;102185.81;5092452;28;20421;-71
2022/06/02 11:44:19;;;;;;;4.65;2.40;;;;;;;19.37;61.67;102190.25;5092726;28;20020;-72
2022/06/02 11:47:35;;;;;;;3.85;2.00;;;;;;;19.32;56.40;102183.13;5096373;28;20043;-72
2022/06/02 11:50:28;;;;;;;4.95;2.92;;;;;;;19.23;61.61;102185.78;5083568;28;20048;-71
2022/06/02 11:53:24;;;;;;;2.57;2.37;;;;;;;19.24;63.34;102182.22;5106495;28;20025;-72
2022/06/02 11:55:58;;;;;;;6.25;3.25;;;;;;;19.29;68.29;102185.78;5089319;28;20503;-72
2022/06/02 11:58:57;;;;;;;4.35;2.90;;;;;;;19.63;69.63;102191.16;5095054;28;20031;-71
2022/06/02 12:01:41;;;;;;;6.07;2.72;;;;;;;20.45;62.96;102180.41;5106498;28;20034;-72
2022/06/02 12:04:25;;;;;;;;;;;;;;;20.57;57.40;102172.34;5102396;28;20027;-72
2022/06/02 12:07:15;;;;;;;5.13;3.00;;;;;;;20.96;52.54;102165.06;5116241;28;19976;-73
2022/06/02 12:09:59;;;;;;;8.25;3.20;;;;;;;20.94;53.23;102153.47;5113500;28;20019;-71
2022/06/02 12:12:53;;;;;;;6.70;3.20;;;;;;;21.28;66.17;102177.31;5082378;28;20114;-71
2022/06/02 12:15:46;;;;;;;6.35;3.10;;;;;;;21.29;57.09;102172.88;5093220;28;20087;-71
2022/06/02 12:18:34;;;;;;;6.83;3.07;;;;;;;20.83;63.31;102177.59;5092296;28;20036;-71
2022/06/02 12:21:24;;;;;;;4.35;3.10;;;;;;;21.23;58.65;102177.38;5091095;28;20301;-72
2022/06/02 12:24:17;;;;;;;5.72;2.55;;;;;;;21.27;57.73;102163.97;5104286;28;20024;-71
2022/06/02 12:27:07;;;;;;;5.40;3.78;;;;;;;21.36;58.01;102163.91;5107422;28;20375;-72
2022/06/02 12:29:51;;;;;;;3.83;3.50;;;;;;;21.54;56.23;102157.53;5115296;28;20454;-70
2022/06/02 12:32:24;;;;;;;3.97;2.78;;;;;;;22.06;54.09;102156.19;5086565;28;20081;-71
2022/06/02 12:34:52;;;;;;;5.55;3.13;;;;;;;22.61;52.00;102151.09;5100115;28;20028;-70
2022/06/02 12:37:17;;;;;;;3.42;3.10;;;;;;;22.76;56.82;102148.22;5094356;28;20044;-71
2022/06/02 12:40:15;;;;;;;4.82;2.70;;;;;;;22.46;53.00;102145.00;5094130;28;20093;-72
2022/06/02 12:42:52;;;;;;;4.10;2.65;;;;;;;21.99;51.30;102144.63;5095530;28;20063;-72
2022/06/02 12:45:48;;;;;;;4.03;2.38;;;;;;;21.89;57.34;102153.66;5095554;28;20036;-71
2022/06/02 12:48:13;;;;;;;4.63;2.30;;;;;;;21.39;54.10;102142.44;5091245;28;20032;-67